Atalissa, Iowa
Current Conditions -  °F | °C
As of 5:35 AM on Saturday 20 Dec 2014 (Local Time) from KMUT Reporting Station
Overcast Overcast  
Wind Chill: 27°   Ceiling: 3600
Heat Index: 32°   Visibility: 10mi
Dew Point: 27°   Wind: 5mph
Humidity: 80%   Direction: 130°SE
Pressure: 30.24"   Gusts: NA
Location:  41.57°N, 91.17°W
Report Text: KMUT 201135Z AUTO 13004KT 10SM OVC036 M00/M03 A3024 RMK AO2
Loading
Personal Weather Stations






























Interactive Weather Map New forecast layout! Learn more

10-Day Weather Forecast

Advertisements
Track Severe Weather on mobile